Time;durP1;ratioP1;P1;durP2;ratioP2;P2;SDS_P1;SDS_P2;PMS_P1;PMS_P2;Temp;Humidity;BMP_temperature;BMP_pressure;BME280_temperature;BME280_humidity;BME280_pressure;Samples;Min_cycle;Max_cycle;Signal;HPM_P1;HPM_P2
2021/09/27 00:01:33;;;;;;;21.40;19.40;;;;;;;15.25;74.96;100874.31;116861;1188;21902;-78
2021/09/27 00:04:02;;;;;;;20.60;18.70;;;;;;;15.26;75.11;100875.27;116776;1191;22044;-79
2021/09/27 00:06:31;;;;;;;21.10;19.00;;;;;;;15.28;75.16;100874.54;116797;1191;22297;-78
2021/09/27 00:09:00;;;;;;;21.10;18.80;;;;;;;15.31;75.29;100874.24;116855;1191;21893;-78
2021/09/27 00:11:29;;;;;;;23.60;21.50;;;;;;;15.33;75.28;100877.17;116798;1191;23765;-78
2021/09/27 00:14:02;;;;;;;22.90;20.60;;;;;;;15.35;75.49;100879.06;116844;1189;22919;-78
2021/09/27 00:16:32;;;;;;;21.30;19.40;;;;;;;15.39;75.46;100875.90;116871;1189;21892;-79
2021/09/27 00:19:01;;;;;;;21.10;18.90;;;;;;;15.43;75.47;100880.61;117024;1189;23463;-79
2021/09/27 00:21:34;;;;;;;22.30;19.70;;;;;;;15.44;75.18;100875.13;117055;1185;21877;-79
2021/09/27 00:24:05;;;;;;;21.10;18.90;;;;;;;15.44;75.18;100872.85;117301;1184;21883;-79
2021/09/27 00:26:34;;;;;;;22.60;20.30;;;;;;;15.44;75.30;100873.64;117319;1183;22629;-79
2021/09/27 00:29:04;;;;;;;21.30;19.10;;;;;;;15.44;75.20;100869.95;117271;1185;21884;-79
2021/09/27 00:31:33;;;;;;;21.40;19.10;;;;;;;15.44;75.21;100867.85;117271;1186;21908;-78
2021/09/27 00:34:03;;;;;;;22.90;20.70;;;;;;;15.45;75.30;100865.03;117340;1185;22340;-78
2021/09/27 00:36:32;;;;;;;21.10;18.40;;;;;;;15.47;75.30;100863.54;117291;1185;21875;-78
2021/09/27 00:39:04;;;;;;;23.40;21.10;;;;;;;15.48;75.34;100865.23;117430;1185;22654;-78
2021/09/27 00:41:34;;;;;;;23.30;20.90;;;;;;;15.49;75.36;100866.98;117416;1185;22345;-78
2021/09/27 00:44:05;;;;;;;24.10;21.70;;;;;;;15.50;75.44;100867.89;117375;1185;21904;-78
2021/09/27 00:46:35;;;;;;;22.30;20.10;;;;;;;15.53;75.33;100867.44;117530;1185;21904;-78
2021/09/27 00:49:05;;;;;;;22.10;19.70;;;;;;;15.56;75.33;100866.22;117296;1185;22911;-82
2021/09/27 00:51:41;;;;;;;22.90;20.40;;;;;;;15.58;75.20;100865.96;117852;1185;23454;-86
2021/09/27 00:54:20;;;;;;;22.50;20.00;;;;;;;15.61;75.28;100867.67;117195;1186;23567;-78
2021/09/27 00:57:03;;;;;;;22.40;20.10;;;;;;;15.64;75.25;100868.05;117141;1189;22913;-78
2021/09/27 00:59:35;;;;;;;22.20;19.70;;;;;;;15.66;75.10;100870.50;117086;1189;21902;-78
2021/09/27 01:02:04;;;;;;;22.20;19.80;;;;;;;15.69;75.02;100873.48;117080;1189;21875;-78
2021/09/27 01:04:34;;;;;;;20.80;18.50;;;;;;;15.71;74.98;100871.23;117062;1189;22851;-78
2021/09/27 01:07:29;;;;;;;24.60;19.20;;;;;;;15.74;74.82;100877.52;117088;1186;21874;-78
2021/09/27 01:10:39;;;;;;;22.20;18.20;;;;;;;15.75;74.77;100875.08;117068;1189;21891;-78
2021/09/27 01:13:34;;;;;;;22.50;18.40;;;;;;;15.77;74.69;100870.41;117091;1189;22977;-78
2021/09/27 01:16:34;;;;;;;23.40;18.90;;;;;;;15.79;74.63;100865.04;117448;1185;21868;-78
2021/09/27 01:19:37;;;;;;;20.20;18.10;;;;;;;15.81;74.57;100861.41;117109;1187;23543;-78
2021/09/27 01:22:43;;;;;;;19.10;17.10;;;;;;;15.83;74.30;100858.84;117116;1188;21887;-78
2021/09/27 01:25:50;;;;;;;20.70;18.60;;;;;;;15.84;74.12;100852.70;117131;1188;21883;-78
2021/09/27 01:29:09;;;;;;;20.80;18.60;;;;;;;15.83;74.00;100851.14;117112;1188;22778;-78
2021/09/27 01:32:04;;;;;;;18.80;16.30;;;;;;;15.81;73.83;100851.95;116797;1192;23696;-78
2021/09/27 01:34:47;;;;;;;17.90;15.60;;;;;;;15.81;73.77;100858.77;116808;1192;23465;-78
2021/09/27 01:37:54;;;;;;;19.70;16.60;;;;;;;15.80;73.51;100858.48;116844;1189;21936;-78
2021/09/27 01:40:32;;;;;;;20.00;16.00;;;;;;;15.80;73.46;100860.08;117035;1187;21882;-78
2021/09/27 01:43:18;;;;;;;19.90;17.50;;;;;;;15.81;73.40;100864.20;116770;1192;22911;-78
2021/09/27 01:46:31;;;;;;;20.40;15.30;;;;;;;15.81;73.31;100862.27;116773;1192;23669;-78
2021/09/27 01:49:30;;;;;;;19.70;16.00;;;;;;;15.78;73.21;100858.73;116413;1194;22079;-78
2021/09/27 01:52:33;;;;;;;19.20;15.00;;;;;;;15.76;73.20;100860.36;116447;1193;23549;-78
2021/09/27 01:55:16;;;;;;;16.90;15.10;;;;;;;15.76;73.13;100861.97;116456;1195;21921;-78
2021/09/27 01:58:24;;;;;;;19.50;15.80;;;;;;;15.77;73.09;100859.40;116430;1193;21929;-78
2021/09/27 02:01:02;;;;;;;23.00;16.70;;;;;;;15.79;72.95;100857.13;116254;1196;23555;-78
2021/09/27 02:03:42;;;;;;;19.90;16.30;;;;;;;15.83;72.85;100855.89;116074;1196;21904;-78
2021/09/27 02:06:30;;;;;;;21.50;17.30;;;;;;;15.84;72.70;100857.52;116339;1192;22946;-78
2021/09/27 02:09:28;;;;;;;23.30;16.60;;;;;;;15.84;72.62;100857.99;116450;1190;21887;-78
2021/09/27 02:12:10;;;;;;;19.70;15.10;;;;;;;15.82;72.44;100859.98;116268;1197;21896;-78
2021/09/27 02:14:49;;;;;;;21.10;13.00;;;;;;;15.81;72.32;100855.74;116119;1198;23045;-77
2021/09/27 02:17:40;;;;;;;16.30;12.70;;;;;;;15.82;72.42;100858.90;116170;1197;21921;-77
2021/09/27 02:20:17;;;;;;;15.40;12.20;;;;;;;15.83;72.25;100858.80;116135;1197;22940;-77
2021/09/27 02:23:19;;;;;;;14.50;11.70;;;;;;;15.83;72.11;100853.14;116349;1193;22850;-77
2021/09/27 02:25:51;;;;;;;15.90;11.50;;;;;;;15.83;72.01;100854.62;116331;1196;23460;-77
2021/09/27 02:28:25;;;;;;;15.70;11.50;;;;;;;15.82;72.01;100852.77;116512;1193;21901;-77
2021/09/27 02:31:00;;;;;;;13.70;10.00;;;;;;;15.83;71.88;100848.35;116793;1190;22858;-77
2021/09/27 02:33:57;;;;;;;14.20;11.10;;;;;;;15.82;71.72;100847.44;116919;1190;24229;-77
2021/09/27 02:36:42;;;;;;;12.10;10.60;;;;;;;15.81;71.78;100846.52;116962;1190;23615;-77
2021/09/27 02:39:28;;;;;;;12.40;10.90;;;;;;;15.80;71.69;100846.06;116778;1187;22453;-77
2021/09/27 02:42:35;;;;;;;14.80;10.80;;;;;;;15.80;71.70;100846.96;116803;1187;23492;-77
2021/09/27 02:45:08;;;;;;;14.90;11.70;;;;;;;15.79;71.48;100845.73;116761;1192;21938;-77
2021/09/27 02:47:50;;;;;;;18.90;11.60;;;;;;;15.77;71.46;100842.38;116563;1192;21918;-77
2021/09/27 02:50:27;;;;;;;15.00;11.20;;;;;;;15.76;71.41;100840.52;116745;1190;22927;-78
2021/09/27 02:52:58;;;;;;;12.70;10.20;;;;;;;15.75;71.42;100837.58;116562;1190;21901;-78
2021/09/27 02:56:07;;;;;;;18.80;11.50;;;;;;;15.75;71.38;100838.43;116578;1192;21899;-78
2021/09/27 02:59:07;;;;;;;16.20;10.80;;;;;;;15.73;71.33;100834.52;116986;1189;21923;-78
2021/09/27 03:02:08;;;;;;;16.80;11.10;;;;;;;15.69;71.30;100835.27;117051;1189;21901;-78
2021/09/27 03:05:19;;;;;;;15.00;10.90;;;;;;;15.67;71.37;100834.58;117038;1189;23669;-78
2021/09/27 03:08:13;;;;;;;19.00;11.80;;;;;;;15.64;71.40;100832.19;117102;1177;22013;-78
2021/09/27 03:11:00;;;;;;;17.20;11.00;;;;;;;15.65;71.44;100831.59;117024;1186;21891;-78
2021/09/27 03:13:58;;;;;;;18.10;10.90;;;;;;;15.67;71.41;100839.29;117226;1187;21942;-78
2021/09/27 03:16:59;;;;;;;14.30;10.00;;;;;;;15.68;71.26;100841.98;117064;1189;23536;-78
2021/09/27 03:19:55;;;;;;;15.90;10.80;;;;;;;15.67;71.13;100840.19;117080;1184;22900;-77
2021/09/27 03:23:02;;;;;;;15.40;10.40;;;;;;;15.65;71.16;100838.64;117240;1187;21971;-78
2021/09/27 03:26:10;;;;;;;15.40;10.20;;;;;;;15.63;71.11;100835.70;117259;1187;23474;-78
2021/09/27 03:29:08;;;;;;;15.20;10.70;;;;;;;15.62;71.14;100839.23;117085;1189;22960;-78
2021/09/27 03:31:59;;;;;;;18.10;12.10;;;;;;;15.61;71.11;100832.11;116976;1189;22967;-79
2021/09/27 03:34:47;;;;;;;17.60;11.10;;;;;;;15.59;71.12;100827.71;117027;1189;21901;-78
2021/09/27 03:37:24;;;;;;;16.90;10.10;;;;;;;15.59;71.20;100822.36;117095;1188;22068;-78
2021/09/27 03:40:15;;;;;;;13.60;10.00;;;;;;;15.61;70.94;100819.28;117076;1186;22992;-78
2021/09/27 03:43:03;;;;;;;14.60;10.50;;;;;;;15.60;70.93;100814.53;117078;1189;22881;-78
2021/09/27 03:46:02;;;;;;;14.30;9.30;;;;;;;15.58;70.96;100814.10;116967;1187;23681;-78
2021/09/27 03:49:06;;;;;;;14.10;9.20;;;;;;;15.56;71.06;100816.98;117086;1188;21878;-78
2021/09/27 03:51:50;;;;;;;17.10;9.10;;;;;;;15.55;70.98;100816.29;116881;1187;23040;-77
2021/09/27 03:54:53;;;;;;;17.30;9.80;;;;;;;15.54;70.89;100817.66;117057;1189;22905;-78
2021/09/27 03:57:57;;;;;;;15.60;9.60;;;;;;;15.54;71.10;100817.82;117017;1189;21899;-78
2021/09/27 04:00:54;;;;;;;13.30;8.90;;;;;;;15.55;70.88;100817.35;117043;1188;22325;-78
2021/09/27 04:04:00;;;;;;;16.00;9.40;;;;;;;15.53;70.89;100816.34;117052;1188;21916;-78
2021/09/27 04:07:25;;;;;;;15.00;8.70;;;;;;;15.51;70.76;100811.73;117383;1186;22901;-78
2021/09/27 04:10:00;;;;;;;13.10;8.50;;;;;;;15.49;70.75;100812.70;116793;1190;22806;-78
2021/09/27 04:13:01;;;;;;;11.50;8.20;;;;;;;15.48;70.71;100817.61;116869;1191;21904;-77
2021/09/27 04:16:18;;;;;;;12.20;8.20;;;;;;;15.46;70.73;100814.84;116505;1193;22351;-78
2021/09/27 04:19:20;;;;;;;15.10;8.20;;;;;;;15.46;70.78;100814.70;116522;1190;21896;-78
2021/09/27 04:22:11;;;;;;;11.90;8.30;;;;;;;15.44;70.60;100812.10;116506;1193;22978;-79
2021/09/27 04:25:17;;;;;;;14.50;7.90;;;;;;;15.43;70.74;100810.05;116535;1190;21893;-78
2021/09/27 04:28:30;;;;;;;15.70;7.60;;;;;;;15.42;70.74;100806.30;116372;1193;21916;-78
2021/09/27 04:31:51;;;;;;;11.40;7.90;;;;;;;15.39;70.77;100805.34;116046;1199;21925;-78
2021/09/27 04:34:50;;;;;;;13.70;7.90;;;;;;;15.37;70.78;100807.69;116053;1199;21905;-77
2021/09/27 04:37:20;;;;;;;9.10;7.30;;;;;;;15.37;70.81;100803.02;116036;1196;23544;-77
2021/09/27 04:39:50;;;;;;;10.70;7.60;;;;;;;15.38;70.73;100806.06;115972;1200;21897;-77
2021/09/27 04:42:57;;;;;;;13.40;8.40;;;;;;;15.39;70.62;100806.31;115920;1199;23051;-76
2021/09/27 04:45:55;;;;;;;12.60;7.50;;;;;;;15.38;70.72;100804.38;116119;1197;22221;-77
2021/09/27 04:48:59;;;;;;;15.10;7.80;;;;;;;15.37;70.63;100805.55;116529;1191;22595;-76
2021/09/27 04:52:02;;;;;;;18.10;7.90;;;;;;;15.35;70.65;100809.47;116511;1194;23560;-77
2021/09/27 04:55:02;;;;;;;10.90;6.70;;;;;;;15.34;70.60;100808.79;116776;1192;21887;-77
2021/09/27 04:57:55;;;;;;;14.10;7.80;;;;;;;15.32;70.64;100805.59;116489;1194;23924;-77
2021/09/27 05:00:42;;;;;;;12.20;7.90;;;;;;;15.29;70.61;100800.77;116453;1195;21894;-77
2021/09/27 05:04:14;;;;;;;16.10;8.20;;;;;;;15.29;70.60;100801.37;116234;1197;23447;-77
2021/09/27 05:07:20;;;;;;;14.70;9.10;;;;;;;15.27;70.74;100804.27;115927;1200;22189;-78
2021/09/27 05:10:33;;;;;;;15.90;8.40;;;;;;;15.26;70.75;100806.30;115901;1196;24177;-76
2021/09/27 05:13:04;;;;;;;13.90;7.30;;;;;;;15.25;70.73;100806.73;116051;1199;22011;-77
2021/09/27 05:16:17;;;;;;;14.80;7.00;;;;;;;15.26;70.76;100803.34;116161;1198;23576;-77
2021/09/27 05:19:00;;;;;;;12.90;7.90;;;;;;;15.24;70.63;100810.45;115952;1197;21921;-77
2021/09/27 05:22:11;;;;;;;13.50;7.90;;;;;;;15.26;70.74;100810.08;115969;1198;22867;-76
2021/09/27 05:24:49;;;;;;;12.60;7.60;;;;;;;15.27;70.69;100813.57;116247;1196;22801;-77
2021/09/27 05:28:25;;;;;;;11.00;6.30;;;;;;;15.27;70.63;100816.80;116442;1185;21909;-77
2021/09/27 05:31:08;;;;;;;13.60;6.50;;;;;;;15.24;70.45;100816.88;116322;1195;23608;-77
2021/09/27 05:34:02;;;;;;;15.90;6.90;;;;;;;15.21;70.44;100811.11;116437;1195;22934;-77
2021/09/27 05:36:59;;;;;;;12.80;6.90;;;;;;;15.20;70.37;100809.67;116302;1194;21887;-76
2021/09/27 05:40:26;;;;;;;13.50;7.00;;;;;;;15.19;70.37;100809.69;116354;1195;21894;-77
2021/09/27 05:43:01;;;;;;;11.90;7.10;;;;;;;15.15;70.20;100809.11;116525;1193;21899;-77
2021/09/27 05:45:52;;;;;;;12.40;7.70;;;;;;;15.13;70.17;100808.80;116470;1195;21901;-77
2021/09/27 05:48:42;;;;;;;13.10;7.20;;;;;;;15.12;70.27;100813.34;116293;1195;21917;-77
2021/09/27 05:51:25;;;;;;;14.10;8.20;;;;;;;15.11;70.31;100820.27;116311;1195;21897;-76
2021/09/27 05:54:09;;;;;;;11.50;6.80;;;;;;;15.11;70.43;100818.60;116422;1195;22635;-78
2021/09/27 05:57:20;;;;;;;12.70;8.10;;;;;;;15.14;70.45;100824.00;116722;1193;23636;-79
2021/09/27 06:00:19;;;;;;;12.90;7.70;;;;;;;15.20;70.48;100832.67;116712;1193;22640;-78
2021/09/27 06:03:13;;;;;;;17.40;7.80;;;;;;;15.21;70.05;100832.98;116527;1189;21995;-79
2021/09/27 06:06:03;;;;;;;10.80;7.50;;;;;;;15.23;70.13;100829.26;116945;1188;23061;-80
2021/09/27 06:08:59;;;;;;;15.50;9.10;;;;;;;15.22;70.01;100832.30;117010;1189;21874;-79
2021/09/27 06:11:45;;;;;;;17.80;9.40;;;;;;;15.25;70.15;100833.89;117057;1189;22661;-78
2021/09/27 06:14:16;;;;;;;15.90;8.80;;;;;;;15.32;69.96;100837.70;117065;1189;21892;-78
2021/09/27 06:17:36;;;;;;;13.00;7.70;;;;;;;15.39;69.85;100836.47;117073;1189;22802;-78
2021/09/27 06:20:19;;;;;;;12.90;7.70;;;;;;;15.49;69.76;100833.70;116619;1190;22653;-78
2021/09/27 06:23:17;;;;;;;15.60;8.20;;;;;;;15.58;69.61;100834.25;116780;1192;22002;-79
2021/09/27 06:26:03;;;;;;;17.40;8.10;;;;;;;15.68;69.33;100835.30;116798;1192;21890;-79
2021/09/27 06:28:47;;;;;;;12.50;7.50;;;;;;;15.73;68.83;100833.80;116729;1193;23441;-78
2021/09/27 06:31:35;;;;;;;12.30;7.30;;;;;;;15.80;68.59;100836.67;116635;1193;22970;-82
2021/09/27 06:34:54;;;;;;;16.60;7.50;;;;;;;15.92;68.78;100841.30;116515;1190;22917;-81
2021/09/27 06:37:28;;;;;;;11.60;6.90;;;;;;;16.11;68.54;100847.01;116193;1193;21889;-78
2021/09/27 06:40:06;;;;;;;12.90;7.20;;;;;;;16.27;67.73;100846.20;116249;1196;21909;-80
2021/09/27 06:42:36;;;;;;;13.40;6.30;;;;;;;16.38;67.26;100844.94;116141;1197;21891;-78
2021/09/27 06:45:08;;;;;;;11.20;7.10;;;;;;;16.54;67.48;100844.18;116201;1197;21909;-78
2021/09/27 06:47:37;;;;;;;;;;;;;;;16.83;67.16;100841.84;116259;1196;24003;-78
2021/09/27 06:50:09;;;;;;;12.90;7.00;;;;;;;17.05;67.03;100841.84;116434;1193;21994;-78
2021/09/27 06:52:38;;;;;;;;;;;;;;;17.30;66.34;100842.98;116509;1195;21875;-79
2021/09/27 06:55:11;;;;;;;12.40;6.50;;;;;;;17.50;65.66;100846.08;116565;1192;21882;-79
2021/09/27 06:57:40;;;;;;;24.20;6.20;;;;;;;17.72;64.84;100847.30;116933;1179;21882;-79
2021/09/27 07:00:12;;;;;;;11.70;6.70;;;;;;;17.82;63.41;100849.36;117007;1190;21895;-79
2021/09/27 07:02:42;;;;;;;14.20;6.70;;;;;;;17.85;63.00;100849.65;117044;1190;21897;-78
2021/09/27 07:05:13;;;;;;;14.00;6.90;;;;;;;17.97;63.04;100856.31;116905;1187;21879;-78
2021/09/27 07:07:42;;;;;;;12.50;7.10;;;;;;;18.06;62.27;100855.59;116871;1190;21887;-78
2021/09/27 07:10:17;;;;;;;17.60;6.90;;;;;;;18.07;61.75;100856.04;117028;1189;21925;-78
2021/09/27 07:12:46;;;;;;;12.50;7.60;;;;;;;18.07;61.44;100858.92;116896;1190;23571;-79
2021/09/27 07:15:15;;;;;;;8.00;5.80;;;;;;;18.01;61.31;100858.21;117221;1186;21878;-78
2021/09/27 07:17:45;;;;;;;10.60;6.70;;;;;;;18.04;61.84;100856.23;117509;1182;21894;-78
2021/09/27 07:20:20;;;;;;;12.80;7.40;;;;;;;18.08;61.28;100858.84;117512;1184;21899;-79
2021/09/27 07:22:56;;;;;;;13.70;6.60;;;;;;;17.99;61.10;100858.20;117158;1188;21886;-79
2021/09/27 07:25:29;;;;;;;13.90;7.20;;;;;;;17.88;61.24;100856.05;117161;1189;21903;-79
2021/09/27 07:27:58;;;;;;;12.80;7.70;;;;;;;17.80;61.38;100857.59;117135;1189;21879;-78
2021/09/27 07:30:29;;;;;;;11.30;6.60;;;;;;;17.72;61.70;100856.62;117129;1187;21905;-78
2021/09/27 07:33:00;;;;;;;12.50;7.30;;;;;;;17.67;61.98;100852.79;117104;1189;23483;-78
2021/09/27 07:35:30;;;;;;;12.60;6.60;;;;;;;17.66;62.33;100853.58;117080;1188;23794;-79
2021/09/27 07:38:02;;;;;;;10.50;5.80;;;;;;;17.73;62.53;100853.63;116957;1189;21900;-85
2021/09/27 07:40:50;;;;;;;14.90;6.50;;;;;;;17.77;62.49;100857.71;117729;1167;21994;31
2021/09/27 07:43:31;;;;;;;12.20;6.80;;;;;;;17.81;62.45;100855.92;117018;1189;21914;-79
2021/09/27 07:46:01;;;;;;;11.00;6.90;;;;;;;17.88;62.51;100859.30;116958;1191;23540;-80
2021/09/27 07:48:31;;;;;;;11.10;6.40;;;;;;;17.95;62.33;100856.80;116881;1187;21936;-79
2021/09/27 07:51:01;;;;;;;9.30;6.70;;;;;;;18.04;62.71;100856.40;116882;1191;23489;-80
2021/09/27 07:53:30;;;;;;;15.90;6.80;;;;;;;18.19;62.53;100854.69;116644;1190;21882;-79
2021/09/27 07:56:00;;;;;;;9.10;6.30;;;;;;;18.26;61.59;100858.23;116841;1192;23530;-79
2021/09/27 07:58:29;;;;;;;10.00;6.00;;;;;;;18.26;61.20;100856.99;116640;1192;23438;-79
2021/09/27 08:00:58;;;;;;;13.30;6.20;;;;;;;18.24;61.06;100854.15;116692;1193;22360;-80
2021/09/27 08:03:28;;;;;;;13.00;6.40;;;;;;;18.24;61.24;100851.57;116512;1195;22879;-80
2021/09/27 08:05:57;;;;;;;12.90;6.80;;;;;;;18.27;61.31;100852.21;116404;1196;21887;-80
2021/09/27 08:08:26;;;;;;;10.60;6.30;;;;;;;18.25;61.07;100854.52;116597;1192;21872;-80
2021/09/27 08:10:56;;;;;;;11.90;7.10;;;;;;;18.23;61.05;100853.23;116643;1190;21896;-80
2021/09/27 08:13:25;;;;;;;13.80;6.70;;;;;;;18.21;61.08;100853.66;116889;1187;22848;-79
2021/09/27 08:15:55;;;;;;;10.00;6.80;;;;;;;18.15;60.93;100856.27;116978;1190;23473;-79
2021/09/27 08:18:25;;;;;;;17.20;7.10;;;;;;;18.04;61.08;100850.77;116951;1190;21874;-79
2021/09/27 08:21:04;;;;;;;13.20;7.60;;;;;;;17.97;61.11;100852.11;116966;1187;21911;-79
2021/09/27 08:23:33;;;;;;;12.10;6.70;;;;;;;17.96;61.67;100850.44;117043;1186;21896;-79
2021/09/27 08:26:04;;;;;;;12.60;8.10;;;;;;;17.98;61.74;100852.95;117233;1184;23664;-79
2021/09/27 08:28:36;;;;;;;10.80;6.50;;;;;;;18.02;61.81;100851.71;117195;1187;21971;-80
2021/09/27 08:31:11;;;;;;;12.50;7.30;;;;;;;17.99;61.43;100848.02;117152;1187;22889;-79
2021/09/27 08:33:42;;;;;;;12.50;7.60;;;;;;;17.91;61.50;100847.55;117232;1184;21890;-79
2021/09/27 08:36:14;;;;;;;15.60;6.60;;;;;;;17.83;61.80;100847.42;117298;1178;21889;-79
2021/09/27 08:38:44;;;;;;;11.60;6.50;;;;;;;17.82;62.00;100847.79;117292;1187;21891;-79
2021/09/27 08:41:54;;;;;;;9.40;7.00;;;;;;;17.85;62.15;100846.80;117251;1188;21977;-79
2021/09/27 08:44:41;;;;;;;15.50;7.00;;;;;;;17.83;62.09;100845.20;117191;1187;21897;-80
2021/09/27 08:47:34;;;;;;;16.20;8.40;;;;;;;17.80;62.00;100845.93;117307;1188;22942;-80
2021/09/27 08:50:32;;;;;;;11.40;6.70;;;;;;;17.74;62.04;100846.03;117188;1188;22204;-79
2021/09/27 08:53:23;;;;;;;12.60;7.50;;;;;;;17.73;62.39;100840.55;117272;1188;22173;-80
2021/09/27 08:56:05;;;;;;;12.90;7.40;;;;;;;17.78;62.48;100842.14;116995;1187;23094;-79
2021/09/27 08:58:56;;;;;;;14.50;7.90;;;;;;;17.82;62.61;100840.59;116854;1187;21893;-80
2021/09/27 09:02:12;;;;;;;13.30;8.30;;;;;;;17.92;62.86;100836.82;116546;1193;21888;-78
2021/09/27 09:05:17;;;;;;;14.00;7.50;;;;;;;18.02;62.64;100836.92;116548;1194;21904;-79
2021/09/27 09:08:23;;;;;;;11.80;7.90;;;;;;;18.03;62.27;100839.09;116622;1193;21907;-79
2021/09/27 09:11:35;;;;;;;13.80;8.80;;;;;;;18.04;62.62;100840.16;116525;1193;22045;-80
2021/09/27 09:14:41;;;;;;;12.80;8.70;;;;;;;18.13;62.88;100838.72;116681;1191;23886;-80
2021/09/27 09:17:46;;;;;;;18.20;8.50;;;;;;;18.20;62.47;100841.52;116879;1191;21876;-79
2021/09/27 09:20:38;;;;;;;17.30;9.20;;;;;;;18.22;62.20;100837.61;117060;1181;22905;-80
2021/09/27 09:23:08;;;;;;;19.10;10.00;;;;;;;18.28;62.40;100832.69;117399;1187;23550;-79
2021/09/27 09:25:40;;;;;;;17.80;9.70;;;;;;;18.40;62.58;100826.54;117171;1188;21894;-80
2021/09/27 09:28:10;;;;;;;14.80;8.90;;;;;;;18.52;62.28;100825.16;117303;1188;21893;-80
2021/09/27 09:31:19;;;;;;;13.20;9.20;;;;;;;18.60;62.02;100827.70;117263;1188;24209;-80
2021/09/27 09:33:56;;;;;;;13.10;8.50;;;;;;;18.69;62.10;100828.84;116831;1190;21925;-79
2021/09/27 09:36:32;;;;;;;12.30;8.30;;;;;;;18.81;62.18;100824.02;117094;1187;23448;-80
2021/09/27 09:39:31;;;;;;;16.00;8.50;;;;;;;18.91;61.81;100819.73;116986;1187;22917;-80
2021/09/27 09:42:13;;;;;;;15.50;9.60;;;;;;;19.00;61.54;100816.23;116827;1187;23554;-79
2021/09/27 09:44:48;;;;;;;11.80;9.50;;;;;;;19.07;61.33;100814.44;116951;1187;21898;-79
2021/09/27 09:47:30;;;;;;;14.70;10.00;;;;;;;19.14;61.14;100818.33;116956;1191;21900;-79
2021/09/27 09:50:25;;;;;;;;;;;;;;;19.15;60.73;100813.92;116970;1187;23542;-78
2021/09/27 09:52:59;;;;;;;16.60;9.60;;;;;;;19.05;60.96;100813.59;116920;1191;22033;-80
2021/09/27 09:55:42;;;;;;;19.60;12.40;;;;;;;19.08;61.24;100817.52;116961;1191;21881;-79
2021/09/27 09:58:33;;;;;;;17.30;11.50;;;;;;;19.16;61.41;100817.84;116888;1190;21881;-80
2021/09/27 10:01:17;;;;;;;13.00;9.00;;;;;;;19.28;61.26;100813.38;116982;1187;23633;-78
2021/09/27 10:04:04;;;;;;;18.20;9.30;;;;;;;19.32;60.64;100810.19;116852;1191;23630;-80
2021/09/27 10:06:36;;;;;;;15.80;10.60;;;;;;;19.32;60.50;100811.25;116933;1191;21923;-80
2021/09/27 10:09:14;;;;;;;11.70;9.00;;;;;;;19.30;60.47;100809.64;117192;1190;21887;-80
2021/09/27 10:12:06;;;;;;;17.90;9.00;;;;;;;19.29;60.55;100806.11;117207;1190;21892;-79
2021/09/27 10:14:46;;;;;;;18.30;9.80;;;;;;;19.33;60.88;100806.80;116549;1193;22145;-78
2021/09/27 10:17:32;;;;;;;12.50;9.80;;;;;;;19.39;60.75;100802.89;116498;1193;21927;-79
2021/09/27 10:20:33;;;;;;;12.50;9.50;;;;;;;19.45;60.60;100803.74;116528;1193;21896;-78
2021/09/27 10:23:11;;;;;;;10.40;8.00;;;;;;;19.48;60.47;100794.87;116643;1189;21897;-79
2021/09/27 10:25:48;;;;;;;11.60;8.10;;;;;;;19.54;60.75;100795.04;116581;1190;22123;-78
2021/09/27 10:28:21;;;;;;;10.80;8.50;;;;;;;19.63;60.49;100793.39;116604;1193;23576;-78
2021/09/27 10:30:57;;;;;;;12.90;8.40;;;;;;;19.67;60.03;100790.48;116803;1191;23427;-78
2021/09/27 10:33:34;;;;;;;11.80;8.60;;;;;;;19.67;59.76;100789.24;117098;1188;21866;-78
2021/09/27 10:36:30;;;;;;;12.40;8.70;;;;;;;19.68;59.94;100786.77;117181;1187;22934;-79
2021/09/27 10:39:00;;;;;;;12.70;9.10;;;;;;;19.72;60.00;100780.29;116924;1191;22846;-80
2021/09/27 10:41:41;;;;;;;11.10;8.70;;;;;;;19.76;59.82;100782.56;116897;1191;21899;-80
2021/09/27 10:44:18;;;;;;;13.50;8.30;;;;;;;19.81;59.77;100781.48;116864;1191;22843;-79
2021/09/27 10:46:55;;;;;;;14.40;9.20;;;;;;;19.85;59.88;100778.20;116886;1191;23543;-79
2021/09/27 10:49:37;;;;;;;17.60;8.60;;;;;;;19.91;59.62;100777.58;116972;1191;24128;-79
2021/09/27 10:52:34;;;;;;;14.30;8.70;;;;;;;19.92;59.35;100779.02;116930;1191;22126;-78
2021/09/27 10:55:24;;;;;;;10.80;8.30;;;;;;;19.90;59.24;100779.07;116900;1191;21918;-79
2021/09/27 10:58:09;;;;;;;13.90;9.50;;;;;;;19.88;59.20;100780.11;116962;1191;22323;-79
2021/09/27 11:00:58;;;;;;;14.60;9.00;;;;;;;19.88;59.42;100777.64;117100;1191;21928;-79
2021/09/27 11:03:39;;;;;;;15.90;10.00;;;;;;;19.93;59.62;100780.39;116877;1191;22228;-79
2021/09/27 11:06:41;;;;;;;9.80;8.20;;;;;;;19.96;59.55;100777.73;116891;1191;21885;-79
2021/09/27 11:09:30;;;;;;;14.40;9.50;;;;;;;19.98;59.38;100778.17;116951;1191;22968;-79
2021/09/27 11:12:18;;;;;;;12.00;9.10;;;;;;;20.02;59.38;100776.33;116924;1191;23541;-79
2021/09/27 11:14:55;;;;;;;10.80;8.30;;;;;;;20.04;59.14;100774.58;116926;1190;22628;-79
2021/09/27 11:17:40;;;;;;;10.30;7.80;;;;;;;20.02;58.88;100775.62;117169;1188;22519;-79
2021/09/27 11:20:12;;;;;;;11.70;8.20;;;;;;;20.04;58.97;100768.22;117036;1187;21881;-79
2021/09/27 11:22:55;;;;;;;13.30;8.70;;;;;;;20.10;58.99;100760.44;117195;1188;23441;-79
2021/09/27 11:25:39;;;;;;;13.30;10.00;;;;;;;20.16;58.73;100761.38;117115;1189;23474;-79
2021/09/27 11:28:08;;;;;;;10.70;9.00;;;;;;;20.16;58.25;100758.31;117151;1188;23595;-80
2021/09/27 11:30:39;;;;;;;13.80;9.80;;;;;;;20.12;58.24;100756.00;117206;1184;21923;-80
2021/09/27 11:33:31;;;;;;;12.20;9.60;;;;;;;20.20;58.57;100759.06;116816;1191;22256;-79
2021/09/27 11:36:14;;;;;;;13.10;10.20;;;;;;;20.30;58.59;100753.16;116597;1194;21901;-79
2021/09/27 11:38:49;;;;;;;12.50;9.40;;;;;;;20.38;58.23;100750.14;116553;1193;22634;-79
2021/09/27 11:41:17;;;;;;;12.30;9.90;;;;;;;20.40;57.85;100745.21;116538;1194;22022;-79
2021/09/27 11:44:12;;;;;;;14.50;10.40;;;;;;;20.42;57.67;100739.83;116236;1198;23762;-79
2021/09/27 11:47:07;;;;;;;13.10;10.10;;;;;;;20.40;57.48;100738.80;116256;1198;21919;-79
2021/09/27 11:50:17;;;;;;;13.90;9.70;;;;;;;20.40;57.59;100738.02;116248;1190;21897;-78
2021/09/27 11:53:22;;;;;;;12.60;8.90;;;;;;;20.43;57.55;100728.78;116474;1195;21896;-79
2021/09/27 11:56:34;;;;;;;11.50;9.10;;;;;;;20.51;57.95;100725.14;116089;1199;21931;-79
2021/09/27 11:59:12;;;;;;;15.00;9.10;;;;;;;20.65;57.75;100721.48;115972;1199;22641;-79
2021/09/27 12:01:52;;;;;;;11.80;9.10;;;;;;;20.73;57.06;100718.10;116096;1195;23524;-79
2021/09/27 12:04:53;;;;;;;11.50;8.90;;;;;;;20.72;56.63;100717.74;116254;1197;21894;-78
2021/09/27 12:07:35;;;;;;;;;;;;;;;20.70;56.85;100710.08;116004;1200;22108;-79
2021/09/27 12:10:24;;;;;;;;;;;;;;;20.67;57.18;100710.16;115968;1200;23437;-79
2021/09/27 12:13:25;;;;;;;9.20;8.40;;;;;;;20.63;57.01;100715.30;116030;1198;21901;-78
2021/09/27 12:16:01;;;;;;;13.90;8.90;;;;;;;20.58;56.93;100713.00;116353;1195;21880;-78
2021/09/27 12:18:48;;;;;;;11.80;8.50;;;;;;;20.59;57.04;100718.03;116517;1195;21894;-78
2021/09/27 12:21:53;;;;;;;13.50;8.40;;;;;;;20.61;56.89;100718.86;116536;1194;23457;-79
2021/09/27 12:24:27;;;;;;;14.00;9.50;;;;;;;20.63;57.01;100719.45;116570;1194;21874;-78
2021/09/27 12:27:19;;;;;;;14.80;8.80;;;;;;;20.69;57.05;100717.07;116832;1192;24397;-78
2021/09/27 12:29:57;;;;;;;14.90;9.50;;;;;;;20.72;56.60;100718.83;116580;1192;22910;-78
2021/09/27 12:32:40;;;;;;;10.40;8.90;;;;;;;20.74;56.65;100717.96;117026;1188;21907;-78
2021/09/27 12:35:20;;;;;;;11.10;8.10;;;;;;;20.76;56.38;100716.08;117150;1188;22942;-77